Hauptseite
METAR-TAF:

METAR-TAF

Flughäfen :

Flughafen Thessaloniki

Thessaloniki, Griechenland

Breite: 40-31N, Länge: 022-58E, Höhe: 8 m

Beobachtung

Neuester Wetterbericht von vor 43 Minuten, um 16:50 UTC
Wind 2 kt aus unterschiedlichen Richtungen
Temperatur 8°C
Luftfeuchtigkeit 71%
Luftdruck 1025 hPa
Sichtweite 10 km oder mehr
keine Wolken unter 1500 m und keine Kumulonimbus oder Gewitterwolken

METAR: LGTS 251650Z VRB02KT CAVOK 08/03 Q1025 NOSIG

Zeit: 19:33 (17:33 UTC)

Prognose

Neuester Wetterbericht von vor 6 Stunden und 33 Minuten, um 11:00 UTC
Gültige Prognose vom 25 um 12 UTC bis 26 um 12 UTC
Wind 3 kt aus unterschiedlichen Richtungen
Sichtweite 10 km oder mehr
Leicht bewölkt in der Höhe von 3000 ft
Wahrscheinlichkeit 30%
vom 26 um 04 UTC bis 26 um 08 UTC
Sichtweite: 5000 m
Aufgelockert bewölkt in der Höhe von 800 ft
feuchter Dunst

TAF: LGTS 251100Z 2512/2612 VRB03KT 9999 FEW030 PROB30 2604/2608 5000 BR SCT008

Wetterbeobachtungen und Prognosen von mehr als 4000 Flughäfen (METAR und TAF Bericht).

Die verfügbaren Stationen werden durch gelbe und rote Markierungen auf der Karte dargestellt.

Führen Sie die Maus auf sie, um den Namen der Station zu sehen.

Darauf klicken, um die Beobachtung von Wetterbeobachtungen und Prognosen zu sehen.

Um die Karte zu ändern : klicken Sie auf den grünen Tasten mit einem schwarzen Kreuz Zum Vergrößern, auf den grünen Button mit einem Gedankenstrich zu verkleinern, oder auf die grünen Pfeile für benachbarte Karten.


METAR-TAF: